Ontonagon, Michigan
Current Conditions -  °F | °C
As of 3:24 PM on Monday 24 Nov 2014 (Local Time) from KCMX Reporting Station
Light Snow Light Snow  
Wind Chill: 10°   Ceiling: 1100
Heat Index: 24°   Visibility: 0.5mi
Dew Point: 20°   Wind: 20mph
Humidity: 84%   Direction: 340°NNW
Pressure: 29.25"   Gusts: 29mph
Location:  46.87°N, 89.31°W
Report Text: KCMX 242024Z AUTO 34017G25KT 1/2SM -SN FZFG BKN011 BKN015 OVC020 M04/M07 A2925 RMK AO2 PK WND 34028/2004 P0000 T10441067
Loading
Personal Weather Stations






























Interactive Weather Map New forecast layout! Learn more

10-Day Weather Forecast

Advertisements
Track Severe Weather on mobile